createdAt,value
2023-02-08T00:01:21.906Z,9.63
2023-02-08T00:03:52.104Z,8.90
2023-02-08T00:06:24.873Z,9.55
2023-02-08T00:08:54.886Z,10.00
2023-02-08T00:11:25.162Z,8.65
2023-02-08T00:13:55.144Z,9.30
2023-02-08T00:16:25.312Z,8.45
2023-02-08T00:18:56.293Z,8.20
2023-02-08T00:21:29.028Z,8.90
2023-02-08T00:23:59.001Z,9.50
2023-02-08T00:26:30.032Z,9.27
2023-02-08T00:29:00.026Z,11.73
2023-02-08T00:31:30.345Z,11.32
2023-02-08T00:34:00.638Z,10.45
2023-02-08T00:36:33.283Z,9.75
2023-02-08T00:39:03.264Z,9.45
2023-02-08T00:41:33.274Z,8.63
2023-02-08T00:44:03.266Z,8.13
2023-02-08T00:46:33.429Z,8.95
2023-02-08T00:49:04.027Z,8.70
2023-02-08T00:51:36.901Z,9.10
2023-02-08T00:54:07.164Z,8.18
2023-02-08T00:56:37.209Z,7.80
2023-02-08T00:59:07.250Z,8.43
2023-02-08T01:01:37.520Z,7.80
2023-02-08T01:04:08.370Z,7.85
2023-02-08T01:06:40.988Z,7.80
2023-02-08T01:09:11.221Z,8.38
2023-02-08T01:11:41.511Z,8.38
2023-02-08T01:14:11.726Z,7.15
2023-02-08T01:16:41.739Z,7.57
2023-02-08T01:19:12.193Z,7.53
2023-02-08T01:21:45.500Z,6.75
2023-02-08T01:24:15.907Z,6.97
2023-02-08T01:26:46.108Z,7.45
2023-02-08T01:29:16.572Z,6.85
2023-02-08T01:31:48.074Z,6.88
2023-02-08T01:34:18.105Z,7.05
2023-02-08T01:36:50.898Z,7.07
2023-02-08T01:39:21.093Z,7.38
2023-02-08T01:41:51.154Z,7.38
2023-02-08T01:44:51.100Z,6.78
2023-02-08T01:47:21.385Z,7.53
2023-02-08T01:49:51.425Z,6.38
2023-02-08T01:52:28.857Z,7.20
2023-02-08T01:55:02.381Z,6.88
2023-02-08T01:57:33.247Z,6.63
2023-02-08T02:00:07.155Z,6.70
2023-02-08T02:02:38.862Z,6.47
2023-02-08T02:05:10.310Z,7.35
2023-02-08T02:07:43.818Z,6.13
2023-02-08T02:10:18.122Z,7.43
2023-02-08T02:12:48.521Z,6.72
2023-02-08T02:15:18.760Z,7.40
2023-02-08T02:17:49.031Z,7.65
2023-02-08T02:20:25.857Z,7.35
2023-02-08T02:23:25.707Z,6.82
2023-02-08T02:26:26.382Z,7.97
2023-02-08T02:29:33.326Z,7.20
2023-02-08T02:32:33.199Z,6.45
2023-02-08T02:35:08.017Z,6.50
2023-02-08T02:37:53.328Z,7.55
2023-02-08T02:40:29.581Z,7.60
2023-02-08T02:43:21.543Z,6.65
2023-02-08T02:45:59.187Z,7.97
2023-02-08T02:48:41.236Z,6.78
2023-02-08T02:51:14.986Z,7.85
2023-02-08T02:53:51.263Z,7.00
2023-02-08T02:56:25.374Z,6.85
2023-02-08T02:58:59.059Z,6.93
2023-02-08T03:01:30.249Z,6.07
2023-02-08T03:04:03.064Z,6.97
2023-02-08T03:06:46.023Z,6.28
2023-02-08T03:09:42.977Z,6.30
2023-02-08T03:12:25.513Z,6.72
2023-02-08T03:15:05.888Z,6.85
2023-02-08T03:17:54.675Z,6.47
2023-02-08T03:20:31.292Z,6.30
2023-02-08T03:23:07.445Z,6.75
2023-02-08T03:25:45.684Z,5.40
2023-02-08T03:28:25.526Z,7.65
2023-02-08T03:31:01.931Z,6.35
2023-02-08T03:33:38.415Z,6.75
2023-02-08T03:36:17.654Z,7.32
2023-02-08T03:38:50.887Z,6.72
2023-02-08T03:41:25.874Z,7.07
2023-02-08T03:44:02.825Z,6.70
2023-02-08T03:46:38.659Z,7.05
2023-02-08T03:49:12.654Z,6.05
2023-02-08T03:51:46.439Z,6.43
2023-02-08T03:54:20.417Z,6.97
2023-02-08T03:56:56.886Z,6.57
2023-02-08T03:59:30.346Z,6.35
2023-02-08T04:02:02.843Z,7.20
2023-02-08T04:04:36.897Z,6.90
2023-02-08T04:07:09.803Z,6.95
2023-02-08T04:09:40.117Z,6.68
2023-02-08T04:12:10.926Z,7.07
2023-02-08T04:14:41.098Z,6.25
2023-02-08T04:17:11.536Z,6.13
2023-02-08T04:19:43.752Z,5.28
2023-02-08T04:22:16.466Z,6.90
2023-02-08T04:24:46.466Z,6.60
2023-02-08T04:27:16.985Z,6.90
2023-02-08T04:29:47.032Z,6.47
2023-02-08T04:32:17.214Z,7.18
2023-02-08T04:34:47.272Z,6.68
2023-02-08T04:37:20.123Z,6.72
2023-02-08T04:39:50.335Z,6.78
2023-02-08T04:42:20.718Z,6.47
2023-02-08T04:44:50.700Z,6.82
2023-02-08T04:47:20.923Z,7.07
2023-02-08T04:49:51.212Z,7.65
2023-02-08T04:52:23.837Z,7.20
2023-02-08T04:54:54.024Z,6.63
2023-02-08T04:57:24.290Z,6.65
2023-02-08T04:59:55.146Z,7.30
2023-02-08T05:02:25.220Z,6.93
2023-02-08T05:04:55.450Z,7.40
2023-02-08T05:07:28.377Z,5.82
2023-02-08T05:09:58.584Z,6.78
2023-02-08T05:12:28.781Z,7.13
2023-02-08T05:14:58.837Z,6.70
2023-02-08T05:17:28.877Z,6.60
2023-02-08T05:19:59.104Z,7.35
2023-02-08T05:22:31.938Z,7.03
2023-02-08T05:25:02.159Z,7.35
2023-02-08T05:27:32.494Z,8.10
2023-02-08T05:30:02.719Z,8.35
2023-02-08T05:32:32.815Z,7.65
2023-02-08T05:35:02.837Z,8.45
2023-02-08T05:37:35.643Z,9.25
2023-02-08T05:40:05.914Z,7.50
2023-02-08T05:42:36.389Z,7.53
2023-02-08T05:45:06.663Z,8.10
2023-02-08T05:47:36.736Z,7.75
2023-02-08T05:50:07.321Z,6.97
2023-02-08T05:52:39.940Z,6.35
2023-02-08T05:55:10.716Z,6.60
2023-02-08T05:57:40.816Z,6.68
2023-02-08T06:00:12.502Z,7.97
2023-02-08T06:02:42.775Z,6.70
2023-02-08T06:05:12.785Z,6.82
2023-02-08T06:07:45.454Z,7.10
2023-02-08T06:10:15.514Z,6.30
2023-02-08T06:12:45.601Z,6.93
2023-02-08T06:15:15.624Z,6.60
2023-02-08T06:17:46.092Z,6.90
2023-02-08T06:20:18.960Z,6.95
2023-02-08T06:22:51.736Z,6.97
2023-02-08T06:25:21.850Z,5.63
2023-02-08T06:27:52.160Z,6.88
2023-02-08T06:30:22.578Z,6.50
2023-02-08T06:32:52.759Z,7.03
2023-02-08T06:35:23.161Z,7.35
2023-02-08T06:37:55.859Z,6.15
2023-02-08T06:40:25.867Z,7.13
2023-02-08T06:42:56.174Z,7.57
2023-02-08T06:45:26.381Z,7.65
2023-02-08T06:47:56.407Z,7.53
2023-02-08T06:50:26.642Z,7.78
2023-02-08T06:52:59.232Z,7.45
2023-02-08T06:55:29.432Z,6.90
2023-02-08T06:57:59.818Z,7.40
2023-02-08T07:00:29.799Z,6.63
2023-02-08T07:03:01.146Z,6.72
2023-02-08T07:05:31.452Z,5.78
2023-02-08T07:08:04.111Z,7.13
2023-02-08T07:10:34.207Z,7.03
2023-02-08T07:13:05.236Z,7.80
2023-02-08T07:15:35.772Z,9.00
2023-02-08T07:18:06.117Z,8.93
2023-02-08T07:20:36.373Z,10.10
2023-02-08T07:23:09.074Z,8.40
2023-02-08T07:25:39.047Z,7.80
2023-02-08T07:28:09.736Z,10.02
2023-02-08T07:30:40.478Z,8.15
2023-02-08T07:33:10.774Z,7.40
2023-02-08T07:35:41.004Z,7.32
2023-02-08T07:38:13.867Z,8.05
2023-02-08T07:40:44.517Z,7.57
2023-02-08T07:43:14.550Z,7.38
2023-02-08T07:45:44.765Z,8.70
2023-02-08T07:48:15.095Z,8.75
2023-02-08T07:50:45.488Z,7.82
2023-02-08T07:53:18.282Z,8.60
2023-02-08T07:55:49.774Z,8.60
2023-02-08T07:58:20.479Z,7.43
2023-02-08T08:00:50.920Z,7.20
2023-02-08T08:03:21.501Z,8.13
2023-02-08T08:05:54.972Z,5.97
2023-02-08T08:08:27.745Z,8.43
2023-02-08T08:10:57.808Z,7.07
2023-02-08T08:13:27.973Z,7.90
2023-02-08T08:15:58.571Z,8.02
2023-02-08T08:18:29.647Z,9.00
2023-02-08T08:20:59.664Z,11.45
2023-02-08T08:23:33.429Z,12.82
2023-02-08T08:26:03.827Z,12.05
2023-02-08T08:28:34.103Z,13.13
2023-02-08T08:31:04.314Z,13.35
2023-02-08T08:33:34.526Z,12.80
2023-02-08T08:36:04.573Z,12.10
2023-02-08T08:38:38.824Z,12.02
2023-02-08T08:41:11.632Z,10.98
2023-02-08T08:43:42.210Z,13.68
2023-02-08T08:46:13.369Z,12.23
2023-02-08T08:51:14.309Z,9.80
2023-02-08T08:53:47.035Z,9.57
2023-02-08T08:56:17.090Z,9.90
2023-02-08T08:58:47.190Z,10.18
2023-02-08T09:01:17.318Z,9.07
2023-02-08T09:03:47.482Z,9.63
2023-02-08T09:06:17.561Z,9.68
2023-02-08T09:08:51.748Z,8.30
2023-02-08T09:11:22.025Z,8.73
2023-02-08T09:13:55.592Z,9.20
2023-02-08T09:16:27.199Z,8.57
2023-02-08T09:18:57.517Z,8.73
2023-02-08T09:21:28.178Z,8.10
2023-02-08T09:24:01.007Z,9.52
2023-02-08T09:26:31.265Z,8.63
2023-02-08T09:29:01.724Z,8.80
2023-02-08T09:31:33.861Z,9.23
2023-02-08T09:34:04.433Z,8.88
2023-02-08T09:39:12.740Z,9.73
2023-02-08T09:42:00.959Z,8.25
2023-02-08T09:44:37.529Z,7.97
2023-02-08T09:47:16.777Z,8.35
2023-02-08T09:49:58.678Z,8.15
2023-02-08T09:52:35.947Z,7.50
2023-02-08T09:57:44.320Z,7.20
2023-02-08T10:00:19.274Z,6.78
2023-02-08T10:02:51.609Z,6.43
2023-02-08T10:05:25.103Z,7.07
2023-02-08T10:07:56.389Z,7.07
2023-02-08T10:10:40.152Z,6.65
2023-02-08T10:13:40.388Z,6.80
2023-02-08T10:16:19.980Z,7.32
2023-02-08T10:19:00.178Z,7.47
2023-02-08T10:21:43.648Z,6.10
2023-02-08T10:27:00.108Z,6.70
2023-02-08T10:29:56.828Z,6.68
2023-02-08T10:32:42.729Z,6.30
2023-02-08T10:35:25.057Z,8.00
2023-02-08T10:37:56.806Z,8.55
2023-02-08T10:40:35.790Z,8.10
2023-02-08T10:43:34.268Z,8.25
2023-02-08T10:46:12.855Z,7.80
2023-02-08T10:48:52.575Z,7.88
2023-02-08T10:51:23.826Z,7.07
2023-02-08T10:53:53.898Z,7.10
2023-02-08T10:56:45.817Z,7.30
2023-02-08T10:59:24.981Z,7.93
2023-02-08T11:01:56.565Z,7.30
2023-02-08T11:04:26.879Z,7.45
2023-02-08T11:06:57.094Z,6.63
2023-02-08T11:12:01.386Z,6.00
2023-02-08T11:14:47.118Z,6.90
2023-02-08T11:17:30.419Z,6.22
2023-02-08T11:20:02.208Z,5.85
2023-02-08T11:22:34.958Z,6.38
2023-02-08T11:25:07.539Z,6.50
2023-02-08T11:27:40.567Z,5.97
2023-02-08T11:30:24.607Z,6.30
2023-02-08T11:33:23.362Z,7.70
2023-02-08T11:36:12.144Z,5.38
2023-02-08T11:38:45.574Z,5.57
2023-02-08T11:41:21.498Z,4.97
2023-02-08T11:44:01.740Z,5.18
2023-02-08T11:46:37.287Z,4.53
2023-02-08T11:49:07.584Z,4.55
2023-02-08T11:51:40.552Z,5.00
2023-02-08T11:54:41.709Z,4.32
2023-02-08T11:57:19.496Z,3.55
2023-02-08T11:59:50.125Z,4.00
2023-02-08T12:02:40.163Z,3.75
2023-02-08T12:05:16.594Z,4.07
2023-02-08T12:08:12.842Z,4.18
2023-02-08T12:11:10.893Z,4.22
2023-02-08T12:14:09.117Z,4.18
2023-02-08T12:16:54.023Z,3.72
2023-02-08T12:19:51.817Z,3.30
2023-02-08T12:22:27.189Z,3.55
2023-02-08T12:25:10.095Z,2.90
2023-02-08T12:27:46.272Z,3.28
2023-02-08T12:30:25.400Z,3.00
2023-02-08T12:33:26.261Z,3.08
2023-02-08T12:36:30.083Z,2.92
2023-02-08T12:42:11.780Z,2.58
2023-02-08T12:45:00.805Z,1.58
2023-02-08T12:48:03.058Z,1.40
2023-02-08T12:50:43.867Z,1.80
2023-02-08T12:53:26.024Z,1.73
2023-02-08T12:55:59.159Z,1.15
2023-02-08T12:58:32.995Z,2.05
2023-02-08T13:01:09.484Z,1.98
2023-02-08T13:03:47.005Z,1.80
2023-02-08T13:06:24.432Z,1.35
2023-02-08T13:09:08.792Z,1.13
2023-02-08T13:11:45.525Z,1.63
2023-02-08T13:14:25.077Z,2.15
2023-02-08T13:16:59.590Z,1.75
2023-02-08T13:19:34.613Z,1.63
2023-02-08T13:22:07.524Z,1.15
2023-02-08T13:24:44.387Z,1.25
2023-02-08T13:30:04.840Z,1.55
2023-02-08T13:32:43.561Z,1.77
2023-02-08T13:35:19.245Z,1.38
2023-02-08T13:38:07.130Z,2.08
2023-02-08T13:40:44.363Z,1.58
2023-02-08T13:43:35.508Z,1.40
2023-02-08T13:46:07.582Z,1.27
2023-02-08T13:48:49.049Z,1.48
2023-02-08T13:52:03.810Z,1.63
2023-02-08T13:54:34.265Z,2.00
2023-02-08T13:57:53.774Z,1.80
2023-02-08T14:00:27.038Z,2.00
2023-02-08T14:03:05.689Z,1.75
2023-02-08T14:05:58.061Z,2.22
2023-02-08T14:08:33.304Z,1.85
2023-02-08T14:11:15.465Z,1.55
2023-02-08T14:13:55.466Z,1.58
2023-02-08T14:16:30.344Z,2.17
2023-02-08T14:19:02.728Z,1.23
2023-02-08T14:21:40.356Z,1.35
2023-02-08T14:24:22.475Z,1.65
2023-02-08T14:26:53.825Z,2.00
2023-02-08T14:29:30.896Z,2.13
2023-02-08T14:32:02.067Z,1.88
2023-02-08T14:37:08.770Z,1.83
2023-02-08T14:39:40.129Z,1.10
2023-02-08T14:42:14.497Z,1.20
2023-02-08T14:45:06.941Z,1.83
2023-02-08T14:48:19.408Z,2.00
2023-02-08T14:50:55.070Z,1.67
2023-02-08T14:53:31.998Z,1.88
2023-02-08T14:56:08.128Z,2.03
2023-02-08T14:58:45.328Z,1.83
2023-02-08T15:01:24.213Z,1.85
2023-02-08T15:04:01.295Z,1.60
2023-02-08T15:06:57.852Z,1.80
2023-02-08T15:09:31.203Z,2.05
2023-02-08T15:12:05.394Z,1.85
2023-02-08T15:14:39.227Z,1.60
2023-02-08T15:17:23.161Z,2.42
2023-02-08T15:19:55.321Z,1.90
2023-02-08T15:22:35.718Z,2.45
2023-02-08T15:25:24.084Z,2.20
2023-02-08T15:27:56.350Z,1.90
2023-02-08T15:30:36.334Z,2.08
2023-02-08T15:33:17.265Z,1.83
2023-02-08T15:35:48.387Z,2.15
2023-02-08T15:38:21.634Z,1.73
2023-02-08T15:41:07.905Z,1.63
2023-02-08T15:43:39.037Z,2.50
2023-02-08T15:46:19.785Z,1.67
2023-02-08T15:48:54.609Z,1.67
2023-02-08T15:51:25.463Z,2.05
2023-02-08T15:53:59.868Z,1.88
2023-02-08T15:56:37.976Z,1.33
2023-02-08T15:59:17.649Z,2.22
2023-02-08T16:01:50.388Z,1.90
2023-02-08T16:04:23.821Z,1.75
2023-02-08T16:06:56.122Z,2.03
2023-02-08T16:09:33.066Z,1.90
2023-02-08T16:12:03.974Z,2.25
2023-02-08T16:14:47.369Z,1.65
2023-02-08T16:17:48.876Z,1.85
2023-02-08T16:20:33.685Z,1.52
2023-02-08T16:23:05.738Z,1.92
2023-02-08T16:25:39.085Z,1.73
2023-02-08T16:28:09.388Z,1.98
2023-02-08T16:30:39.719Z,1.42
2023-02-08T16:33:11.254Z,1.42
2023-02-08T16:35:44.223Z,1.50
2023-02-08T16:38:24.438Z,1.42
2023-02-08T16:40:55.700Z,1.95
2023-02-08T16:46:26.913Z,1.35
2023-02-08T16:48:58.697Z,1.50
2023-02-08T16:51:35.863Z,1.23
2023-02-08T16:54:11.596Z,2.00
2023-02-08T16:56:44.465Z,1.45
2023-02-08T16:59:15.222Z,1.77
2023-02-08T17:01:48.186Z,1.25
2023-02-08T17:04:26.547Z,1.40
2023-02-08T17:06:59.985Z,1.90
2023-02-08T17:09:30.165Z,1.48
2023-02-08T17:12:21.571Z,1.98
2023-02-08T17:14:52.975Z,1.95
2023-02-08T17:17:32.967Z,2.10
2023-02-08T17:20:03.272Z,1.92
2023-02-08T17:22:35.975Z,2.42
2023-02-08T17:25:06.079Z,2.38
2023-02-08T17:27:36.563Z,2.13
2023-02-08T17:30:06.990Z,2.40
2023-02-08T17:32:37.189Z,2.65
2023-02-08T17:35:07.417Z,1.63
2023-02-08T17:37:40.184Z,2.58
2023-02-08T17:40:11.897Z,2.20
2023-02-08T17:45:22.225Z,2.30
2023-02-08T17:47:52.969Z,2.10
2023-02-08T17:50:23.897Z,2.53
2023-02-08T17:52:59.960Z,2.15
2023-02-08T17:55:30.168Z,2.80
2023-02-08T17:58:00.469Z,2.95
2023-02-08T18:00:35.038Z,4.07
2023-02-08T18:03:05.324Z,3.40
2023-02-08T18:05:35.735Z,2.38
2023-02-08T18:08:08.948Z,3.30
2023-02-08T18:10:39.055Z,3.17
2023-02-08T18:13:09.115Z,3.35
2023-02-08T18:15:39.399Z,3.63
2023-02-08T18:18:09.598Z,3.28
2023-02-08T18:20:40.257Z,5.22
2023-02-08T18:23:13.103Z,4.45
2023-02-08T18:25:44.162Z,4.90
2023-02-08T18:28:17.155Z,4.35
2023-02-08T18:30:47.538Z,3.80
2023-02-08T18:33:17.987Z,3.75
2023-02-08T18:35:51.880Z,4.15
2023-02-08T18:38:29.365Z,3.80
2023-02-08T18:40:59.747Z,3.72
2023-02-08T18:43:30.341Z,4.18
2023-02-08T18:46:05.508Z,3.75
2023-02-08T18:48:35.845Z,4.90
2023-02-08T18:51:06.298Z,7.03
2023-02-08T18:53:40.407Z,5.35
2023-02-08T18:56:13.848Z,5.63
2023-02-08T18:58:44.383Z,7.50
2023-02-08T19:01:17.109Z,5.15
2023-02-08T19:03:47.843Z,8.05
2023-02-08T19:06:22.525Z,7.55
2023-02-08T19:08:56.811Z,7.85
2023-02-08T19:11:35.429Z,8.85
2023-02-08T19:14:07.791Z,7.97
2023-02-08T19:16:39.676Z,8.10
2023-02-08T19:19:10.262Z,6.85
2023-02-08T19:21:41.443Z,7.10
2023-02-08T19:24:15.678Z,7.13
2023-02-08T19:26:45.845Z,6.65
2023-02-08T19:29:17.947Z,6.50
2023-02-08T19:31:50.217Z,6.53
2023-02-08T19:34:20.747Z,7.50
2023-02-08T19:36:53.087Z,7.15
2023-02-08T19:39:28.674Z,6.82
2023-02-08T19:41:59.615Z,7.13
2023-02-08T19:44:30.717Z,7.65
2023-02-08T19:47:01.307Z,6.95
2023-02-08T19:49:31.759Z,7.47
2023-02-08T19:52:01.941Z,6.57
2023-02-08T19:54:34.611Z,6.40
2023-02-08T19:57:04.897Z,7.13
2023-02-08T19:59:35.524Z,6.30
2023-02-08T20:02:06.441Z,6.85
2023-02-08T20:04:36.583Z,7.47
2023-02-08T20:07:08.227Z,7.07
2023-02-08T20:09:41.010Z,7.68
2023-02-08T20:12:11.221Z,7.78
2023-02-08T20:14:41.297Z,6.88
2023-02-08T20:17:11.378Z,7.72
2023-02-08T20:19:41.507Z,7.88
2023-02-08T20:22:11.768Z,7.75
2023-02-08T20:24:44.393Z,7.35
2023-02-08T20:27:14.487Z,9.43
2023-02-08T20:29:44.528Z,8.15
2023-02-08T20:32:14.877Z,7.80
2023-02-08T20:34:58.481Z,8.02
2023-02-08T20:37:29.648Z,8.18
2023-02-08T20:40:02.324Z,8.65
2023-02-08T20:42:32.738Z,9.30
2023-02-08T20:45:03.024Z,9.43
2023-02-08T20:47:38.794Z,9.07
2023-02-08T20:50:19.022Z,9.07
2023-02-08T20:52:50.041Z,9.27
2023-02-08T20:55:22.808Z,9.32
2023-02-08T20:57:53.139Z,8.23
2023-02-08T21:00:27.912Z,8.40
2023-02-08T21:03:03.574Z,8.85
2023-02-08T21:05:33.856Z,8.50
2023-02-08T21:08:03.975Z,7.82
2023-02-08T21:10:38.993Z,9.75
2023-02-08T21:13:09.100Z,10.43
2023-02-08T21:15:39.400Z,10.50
2023-02-08T21:18:09.691Z,9.68
2023-02-08T21:20:41.562Z,9.70
2023-02-08T21:23:11.728Z,9.40
2023-02-08T21:25:45.345Z,9.43
2023-02-08T21:28:15.855Z,9.32
2023-02-08T21:30:46.586Z,8.60
2023-02-08T21:33:17.008Z,8.82
2023-02-08T21:35:46.990Z,9.20
2023-02-08T21:38:17.073Z,9.70
2023-02-08T21:40:49.781Z,9.30
2023-02-08T21:43:19.843Z,9.98
2023-02-08T21:45:50.108Z,9.13
2023-02-08T21:48:20.578Z,9.15
2023-02-08T21:51:05.924Z,9.27
2023-02-08T21:53:48.572Z,10.20
2023-02-08T21:56:21.498Z,8.68
2023-02-08T21:58:51.784Z,9.98
2023-02-08T22:01:22.146Z,9.38
2023-02-08T22:03:52.283Z,9.48
2023-02-08T22:06:34.954Z,9.18
2023-02-08T22:09:05.230Z,9.65
2023-02-08T22:11:37.943Z,8.25
2023-02-08T22:14:08.020Z,8.38
2023-02-08T22:16:38.247Z,9.30
2023-02-08T22:19:08.978Z,7.90
2023-02-08T22:21:39.234Z,8.93
2023-02-08T22:24:09.700Z,8.20
2023-02-08T22:26:43.998Z,8.82
2023-02-08T22:29:14.270Z,9.05
2023-02-08T22:31:44.648Z,8.05
2023-02-08T22:34:15.067Z,8.23
2023-02-08T22:36:45.095Z,8.45
2023-02-08T22:39:15.574Z,8.32
2023-02-08T22:41:48.384Z,8.02
2023-02-08T22:44:18.863Z,8.75
2023-02-08T22:46:49.158Z,8.70
2023-02-08T22:49:19.534Z,8.73
2023-02-08T22:51:49.591Z,7.53
2023-02-08T22:54:19.962Z,7.75
2023-02-08T22:56:52.921Z,7.88
2023-02-08T22:59:23.188Z,7.85
2023-02-08T23:01:53.307Z,7.03
2023-02-08T23:04:23.693Z,7.30
2023-02-08T23:06:53.880Z,7.22
2023-02-08T23:09:24.063Z,6.90
2023-02-08T23:11:56.837Z,7.28
2023-02-08T23:14:27.230Z,6.97
2023-02-08T23:16:57.248Z,7.43
2023-02-08T23:19:27.814Z,6.57
2023-02-08T23:22:00.975Z,7.05
2023-02-08T23:24:31.505Z,5.43
2023-02-08T23:27:04.182Z,6.35
2023-02-08T23:29:34.319Z,7.38
2023-02-08T23:32:04.373Z,6.40
2023-02-08T23:34:34.510Z,7.18
2023-02-08T23:37:04.739Z,6.13
2023-02-08T23:39:36.430Z,6.07
2023-02-08T23:42:25.518Z,6.60
2023-02-08T23:44:55.889Z,6.53
2023-02-08T23:47:27.563Z,7.15
2023-02-08T23:49:58.079Z,6.80
2023-02-08T23:52:28.120Z,6.50
2023-02-08T23:54:58.432Z,7.00
2023-02-08T23:57:34.639Z,5.95
